Bardufoss, Norway

6:35 AM CEST on October 25, 2014 (GMT +0200)
Andsvatn | Change Station
CLOSE
Current Station
Personal Weather Station
Location: Sorreisa, TROMS
Elevation: 510 ft
Nearby Weather Stations

Elev 510 ft 69.08 °N, 18.37 °E | Updated 7 seconds ago

Mostly Cloudy
Mostly Cloudy
39.7 °F
Feels Like 35 °F
N
7.0
Wind Variable Wind from ESE
Gusts 8.0 mph

Today
High -- | Low -- °F
--% Chance of Precip.
Yesterday
High -- | Low -- °F
Precip. -- in
8:34 AM 4:23 PM
New Moon, 2% visible
Pressure 29.65 in
Visibility 6.2 miles
Clouds Few 5000 ft
Mostly Cloudy 12000 ft
Windchill 35 °F
Dew Point 33 °F
Humidity 77%
Rainfall 0.00 in
Snow Depth Not available.
UV 0 out of 12
Pollen Not available.
Air Quality Not available.
Flu Activity Not available.
METAR ENDU 250420Z 27003KT 240V320 9999 FEW050 BKN120 01/M01 Q1004

More Conditions Fewer Conditions

Pressure 29.65 in
Visibility 6.2 miles
Clouds Few 5000 ft
Mostly Cloudy 12000 ft
Windchill 35 °F
Dew Point 33 °F
Humidity 77%
Rainfall 0.00 in
Snow Depth Not available.
UV 0 out of 12
Pollen Not available.
Air Quality Not available.
Flu Activity Not available.
METAR ENDU 250420Z 27003KT 240V320 9999 FEW050 BKN120 01/M01 Q1004

More Conditions Fewer Conditions

10-Day Weather Forecast

Almanac

Astronomy

Oct. 25, 2014 Rise Set
Actual Time 8:34 AM CEST 4:23 PM CEST
Civil Twilight 7:30 AM CEST 5:28 PM CEST
Nautical Twilight 6:21 AM CEST 6:36 PM CEST
Astronomical Twilight 5:13 AM CEST 7:43 PM CEST
Moon 10:39 AM CEST 4:44 PM CEST
Length of Visible Light 9h 57m
Length of Day
7h 49m
Tomorrow will be 8m 48s shorter.
New Moon, 2% of the Moon is Illuminated
Today
New Moon
Oct 30
First Quarter
Nov 6
Full
Nov 14
Last Quarter
Nov 22
New

Yesterday's Extremes

Country Highs Country Lows

Community

WunderPhotos

Upload Photos

1,764,782 photos uploaded!

Nearby

Snow Depth

Not available.

Earthquake Activity

City Distance Mag. Time & Date
No recent earthquake activity has been reported nearby.
Minimum magnitude displayed is 2.5.

Coastal Water Temperatures

Place Temperature
No Stations Reporting

Nearby Weather Stations